createdAt,value
2022-10-06T00:00:02.138Z,98.24
2022-10-06T00:01:02.145Z,98.24
2022-10-06T00:02:02.123Z,98.14
2022-10-06T00:03:02.183Z,98.24
2022-10-06T00:04:02.110Z,98.24
2022-10-06T00:05:02.076Z,98.24
2022-10-06T00:06:02.065Z,98.34
2022-10-06T00:07:02.079Z,98.34
2022-10-06T00:08:02.053Z,98.44
2022-10-06T00:09:02.044Z,98.54
2022-10-06T00:10:02.041Z,98.44
2022-10-06T00:11:02.005Z,98.34
2022-10-06T00:12:02.021Z,98.44
2022-10-06T00:13:02.001Z,98.34
2022-10-06T00:14:01.984Z,98.34
2022-10-06T00:15:01.971Z,98.44
2022-10-06T00:16:02.029Z,98.34
2022-10-06T00:17:01.938Z,98.34
2022-10-06T00:18:01.965Z,98.34
2022-10-06T00:19:01.968Z,98.24
2022-10-06T00:20:01.957Z,98.34
2022-10-06T00:21:01.899Z,98.34
2022-10-06T00:22:01.897Z,98.34
2022-10-06T00:23:01.877Z,98.44
2022-10-06T00:24:01.899Z,98.54
2022-10-06T00:25:01.859Z,98.54
2022-10-06T00:26:01.857Z,98.44
2022-10-06T00:27:01.841Z,98.44
2022-10-06T00:28:01.876Z,98.44
2022-10-06T00:29:01.981Z,98.44
2022-10-06T00:30:01.807Z,98.44
2022-10-06T00:31:01.835Z,98.34
2022-10-06T00:32:01.795Z,98.44
2022-10-06T00:33:01.764Z,98.44
2022-10-06T00:34:01.786Z,98.24
2022-10-06T00:35:01.786Z,98.24
2022-10-06T00:36:01.756Z,98.34
2022-10-06T00:37:01.719Z,98.44
2022-10-06T00:38:01.720Z,98.44
2022-10-06T00:39:01.717Z,98.34
2022-10-06T00:40:01.710Z,98.14
2022-10-06T00:41:01.701Z,98.03
2022-10-06T00:42:01.682Z,98.34
2022-10-06T00:43:01.669Z,98.34
2022-10-06T00:44:01.677Z,98.44
2022-10-06T00:45:01.635Z,98.24
2022-10-06T00:46:01.729Z,98.34
2022-10-06T00:47:01.617Z,98.44
2022-10-06T00:48:01.617Z,98.54
2022-10-06T00:49:01.617Z,98.65
2022-10-06T00:50:01.613Z,98.65
2022-10-06T00:51:01.623Z,98.75
2022-10-06T00:52:01.599Z,98.65
2022-10-06T00:53:01.559Z,98.75
2022-10-06T00:54:01.569Z,98.75
2022-10-06T00:55:01.543Z,98.75
2022-10-06T00:56:01.531Z,98.65
2022-10-06T00:57:01.539Z,98.65
2022-10-06T00:58:01.513Z,98.75
2022-10-06T00:59:01.498Z,98.90
2022-10-06T01:00:01.502Z,98.90
2022-10-06T01:01:01.468Z,98.90
2022-10-06T01:02:01.493Z,98.90
2022-10-06T01:03:01.522Z,98.79
2022-10-06T01:04:01.454Z,98.79
2022-10-06T01:05:01.422Z,98.69
2022-10-06T01:06:01.416Z,98.54
2022-10-06T01:07:01.425Z,98.44
2022-10-06T01:08:01.444Z,98.24
2022-10-06T01:09:01.422Z,98.03
2022-10-06T01:10:01.401Z,98.03
2022-10-06T01:11:01.363Z,98.03
2022-10-06T01:12:01.367Z,97.83
2022-10-06T01:13:01.361Z,97.83
2022-10-06T01:14:01.350Z,97.83
2022-10-06T01:15:01.330Z,97.83
2022-10-06T01:16:01.375Z,98.03
2022-10-06T01:17:01.310Z,97.93
2022-10-06T01:18:01.308Z,97.73
2022-10-06T01:19:01.308Z,97.73
2022-10-06T01:20:01.295Z,97.53
2022-10-06T01:21:01.277Z,97.42
2022-10-06T01:22:01.246Z,97.32
2022-10-06T01:23:01.248Z,97.12
2022-10-06T01:24:01.264Z,97.02
2022-10-06T01:25:01.225Z,97.22
2022-10-06T01:26:01.227Z,97.32
2022-10-06T01:27:01.239Z,97.32
2022-10-06T01:28:01.243Z,97.42
2022-10-06T01:29:01.169Z,97.32
2022-10-06T01:30:01.172Z,97.32
2022-10-06T01:31:01.229Z,97.37
2022-10-06T01:32:01.147Z,97.37
2022-10-06T01:33:01.164Z,97.27
2022-10-06T01:34:01.136Z,97.16
2022-10-06T01:35:01.117Z,97.16
2022-10-06T01:36:01.117Z,97.27
2022-10-06T01:37:01.096Z,97.16
2022-10-06T01:38:01.076Z,97.16
2022-10-06T01:39:01.097Z,97.16
2022-10-06T01:40:01.057Z,97.27
2022-10-06T01:41:01.050Z,97.16
2022-10-06T01:42:01.044Z,97.27
2022-10-06T01:43:01.029Z,96.86
2022-10-06T01:44:01.042Z,96.45
2022-10-06T01:45:00.999Z,96.55
2022-10-06T01:46:01.060Z,96.66
2022-10-06T01:47:00.995Z,96.55
2022-10-06T01:48:00.986Z,96.45
2022-10-06T01:49:00.980Z,96.50
2022-10-06T01:50:00.955Z,96.45
2022-10-06T01:51:00.941Z,96.50
2022-10-06T01:52:00.940Z,96.50
2022-10-06T01:53:00.907Z,96.50
2022-10-06T01:54:00.966Z,96.30
2022-10-06T01:55:00.898Z,96.09
2022-10-06T01:56:00.894Z,95.98
2022-10-06T01:57:00.883Z,95.89
2022-10-06T01:58:00.868Z,95.89
2022-10-06T01:59:00.856Z,95.48
2022-10-06T02:00:00.876Z,95.48
2022-10-06T02:01:00.831Z,95.37
2022-10-06T02:02:00.871Z,95.37
2022-10-06T02:03:00.815Z,95.28
2022-10-06T02:04:00.851Z,95.37
2022-10-06T02:05:00.802Z,95.48
2022-10-06T02:06:00.838Z,95.48
2022-10-06T02:07:00.766Z,95.28
2022-10-06T02:08:00.772Z,95.07
2022-10-06T02:09:00.751Z,95.12
2022-10-06T02:10:00.758Z,95.01
2022-10-06T02:11:00.729Z,94.91
2022-10-06T02:12:00.724Z,95.01
2022-10-06T02:13:00.689Z,94.81
2022-10-06T02:14:00.695Z,94.81
2022-10-06T02:15:00.711Z,94.91
2022-10-06T02:16:00.780Z,94.71
2022-10-06T02:17:00.684Z,94.60
2022-10-06T02:18:00.661Z,94.71
2022-10-06T02:19:00.638Z,95.01
2022-10-06T02:20:00.639Z,94.71
2022-10-06T02:21:00.609Z,95.01
2022-10-06T02:22:00.623Z,95.16
2022-10-06T02:23:00.603Z,95.26
2022-10-06T02:24:00.583Z,95.16
2022-10-06T02:25:00.574Z,95.26
2022-10-06T02:26:00.568Z,94.85
2022-10-06T02:27:00.581Z,94.95
2022-10-06T02:28:00.628Z,94.75
2022-10-06T02:29:00.523Z,94.85
2022-10-06T02:30:00.526Z,94.75
2022-10-06T02:31:00.548Z,94.75
2022-10-06T02:32:00.508Z,94.75
2022-10-06T02:33:00.506Z,94.85
2022-10-06T02:34:00.486Z,94.95
2022-10-06T02:35:00.510Z,94.85
2022-10-06T02:36:00.463Z,94.75
2022-10-06T02:37:00.461Z,94.85
2022-10-06T02:38:00.458Z,94.90
2022-10-06T02:39:00.429Z,94.90
2022-10-06T02:40:00.454Z,94.59
2022-10-06T02:41:00.403Z,94.49
2022-10-06T02:42:00.394Z,94.18
2022-10-06T02:43:00.399Z,94.18
2022-10-06T02:44:00.379Z,94.18
2022-10-06T02:45:00.353Z,94.18
2022-10-06T02:46:00.357Z,94.08
2022-10-06T02:47:00.338Z,94.08
2022-10-06T02:48:00.346Z,93.47
2022-10-06T02:49:00.314Z,93.57
2022-10-06T02:50:00.322Z,93.26
2022-10-06T02:51:00.294Z,93.57
2022-10-06T02:52:00.298Z,93.37
2022-10-06T02:53:00.294Z,93.16
2022-10-06T02:54:00.265Z,93.37
2022-10-06T02:55:00.267Z,93.37
2022-10-06T02:56:00.253Z,93.26
2022-10-06T02:57:00.229Z,92.96
2022-10-06T02:58:00.225Z,92.76
2022-10-06T02:59:00.212Z,92.45
2022-10-06T03:00:00.216Z,92.14
2022-10-06T03:01:00.195Z,92.35
2022-10-06T03:02:00.353Z,92.24
2022-10-06T03:03:00.216Z,92.04
2022-10-06T03:04:00.151Z,92.04
2022-10-06T03:05:00.158Z,92.04
2022-10-06T03:06:00.148Z,92.24
2022-10-06T03:07:00.117Z,92.24
2022-10-06T03:08:00.112Z,91.74
2022-10-06T03:09:00.108Z,91.63
2022-10-06T03:10:00.145Z,91.74
2022-10-06T03:11:00.130Z,91.33
2022-10-06T03:12:00.151Z,90.81
2022-10-06T03:13:00.038Z,90.81
2022-10-06T03:14:00.046Z,90.71
2022-10-06T03:15:00.032Z,90.71
2022-10-06T03:16:00.101Z,90.00
2022-10-06T03:17:00.005Z,89.65
2022-10-06T03:18:00.013Z,89.04
2022-10-06T03:18:59.985Z,88.84
2022-10-06T03:19:59.984Z,88.93
2022-10-06T03:20:59.979Z,88.84
2022-10-06T03:21:59.959Z,88.84
2022-10-06T03:22:59.948Z,88.93
2022-10-06T03:23:59.947Z,88.93
2022-10-06T03:24:59.928Z,89.14
2022-10-06T03:25:59.964Z,89.45
2022-10-06T03:26:59.897Z,89.45
2022-10-06T03:27:59.940Z,89.79
2022-10-06T03:28:59.876Z,89.69
2022-10-06T03:29:59.903Z,90.00
2022-10-06T03:30:59.887Z,89.79
2022-10-06T03:31:59.866Z,90.00
2022-10-06T03:32:59.835Z,90.20
2022-10-06T03:33:59.839Z,90.41
2022-10-06T03:34:59.830Z,90.41
2022-10-06T03:35:59.820Z,90.61
2022-10-06T03:36:59.798Z,90.86
2022-10-06T03:37:59.792Z,91.16
2022-10-06T03:38:59.774Z,91.47
2022-10-06T03:39:59.771Z,91.47
2022-10-06T03:40:59.747Z,91.47
2022-10-06T03:41:59.764Z,91.37
2022-10-06T03:42:59.732Z,91.57
2022-10-06T03:43:59.742Z,91.37
2022-10-06T03:44:59.709Z,91.27
2022-10-06T03:45:59.709Z,90.96
2022-10-06T03:46:59.788Z,90.75
2022-10-06T03:47:59.676Z,90.86
2022-10-06T03:48:59.665Z,90.75
2022-10-06T03:49:59.667Z,90.75
2022-10-06T03:50:59.641Z,90.86
2022-10-06T03:51:59.651Z,90.75
2022-10-06T03:52:59.625Z,90.55
2022-10-06T03:53:59.602Z,90.35
2022-10-06T03:54:59.594Z,90.14
2022-10-06T03:55:59.598Z,90.14
2022-10-06T03:56:59.598Z,90.35
2022-10-06T03:57:59.565Z,90.55
2022-10-06T03:58:59.550Z,90.55
2022-10-06T03:59:59.581Z,90.66
2022-10-06T04:00:59.557Z,90.66
2022-10-06T04:01:59.549Z,90.55
2022-10-06T04:02:59.531Z,90.35
2022-10-06T04:03:59.581Z,90.66
2022-10-06T04:04:59.488Z,90.75
2022-10-06T04:05:59.486Z,90.59
2022-10-06T04:06:59.491Z,90.49
2022-10-06T04:07:59.494Z,90.14
2022-10-06T04:08:59.490Z,90.14
2022-10-06T04:09:59.438Z,90.39
2022-10-06T04:10:59.435Z,90.39
2022-10-06T04:11:59.422Z,90.59
2022-10-06T04:12:59.481Z,90.29
2022-10-06T04:13:59.410Z,90.49
2022-10-06T04:15:00.299Z,90.04
2022-10-06T04:15:59.392Z,89.84
2022-10-06T04:16:59.377Z,89.73
2022-10-06T04:17:59.347Z,89.73
2022-10-06T04:18:59.370Z,89.94
2022-10-06T04:19:59.338Z,89.94
2022-10-06T04:20:59.346Z,89.94
2022-10-06T04:21:59.312Z,89.94
2022-10-06T04:22:59.315Z,89.94
2022-10-06T04:23:59.328Z,89.73
2022-10-06T04:24:59.295Z,89.84
2022-10-06T04:25:59.265Z,89.63
2022-10-06T04:27:00.018Z,89.63
2022-10-06T04:27:59.275Z,89.84
2022-10-06T04:28:59.235Z,89.94
2022-10-06T04:29:59.240Z,90.04
2022-10-06T04:30:59.221Z,90.08
2022-10-06T04:31:59.254Z,90.19
2022-10-06T04:32:59.203Z,90.49
2022-10-06T04:33:59.186Z,90.59
2022-10-06T04:34:59.190Z,90.59
2022-10-06T04:35:59.175Z,90.39
2022-10-06T04:36:59.155Z,90.49
2022-10-06T04:37:59.128Z,90.29
2022-10-06T04:38:59.133Z,90.39
2022-10-06T04:39:59.112Z,90.29
2022-10-06T04:40:59.157Z,90.39
2022-10-06T04:41:59.089Z,90.59
2022-10-06T04:42:59.083Z,90.49
2022-10-06T04:43:59.079Z,90.70
2022-10-06T04:44:59.057Z,90.70
2022-10-06T04:45:59.142Z,90.70
2022-10-06T04:46:59.124Z,90.80
2022-10-06T04:47:59.069Z,90.90
2022-10-06T04:48:59.046Z,91.00
2022-10-06T04:49:59.011Z,91.00
2022-10-06T04:50:59.000Z,91.20
2022-10-06T04:51:58.999Z,91.20
2022-10-06T04:52:59.088Z,91.41
2022-10-06T04:53:58.969Z,91.20
2022-10-06T04:54:58.960Z,91.20
2022-10-06T04:55:58.945Z,91.31
2022-10-06T04:56:58.988Z,91.31
2022-10-06T04:57:58.943Z,91.20
2022-10-06T04:58:58.912Z,91.31
2022-10-06T05:00:05.010Z,91.46
2022-10-06T05:00:58.981Z,91.31
2022-10-06T05:01:58.930Z,91.56
2022-10-06T05:02:58.937Z,91.46
2022-10-06T05:03:58.852Z,91.56
2022-10-06T05:04:58.856Z,91.56
2022-10-06T05:05:58.847Z,91.46
2022-10-06T05:06:58.831Z,91.31
2022-10-06T05:07:58.836Z,91.35
2022-10-06T05:08:58.954Z,91.35
2022-10-06T05:09:58.922Z,91.56
2022-10-06T05:10:58.835Z,91.35
2022-10-06T05:11:58.813Z,91.66
2022-10-06T05:12:58.813Z,91.76
2022-10-06T05:13:58.829Z,91.76
2022-10-06T05:14:58.746Z,91.66
2022-10-06T05:15:58.774Z,91.96
2022-10-06T05:16:59.657Z,91.86
2022-10-06T05:17:58.763Z,92.07
2022-10-06T05:18:58.650Z,92.32
2022-10-06T05:19:58.712Z,92.07
2022-10-06T05:21:01.093Z,91.96
2022-10-06T05:21:58.618Z,91.76
2022-10-06T05:22:58.620Z,91.56
2022-10-06T05:23:58.606Z,91.56
2022-10-06T05:24:58.631Z,91.86
2022-10-06T05:25:58.583Z,92.11
2022-10-06T05:27:01.760Z,92.21
2022-10-06T05:27:58.573Z,92.21
2022-10-06T05:28:58.557Z,92.42
2022-10-06T05:29:58.533Z,92.32
2022-10-06T05:30:58.529Z,92.62
2022-10-06T05:31:58.537Z,92.72
2022-10-06T05:32:58.576Z,92.62
2022-10-06T05:33:58.499Z,92.72
2022-10-06T05:34:58.489Z,92.93
2022-10-06T05:35:58.461Z,92.52
2022-10-06T05:36:58.474Z,92.42
2022-10-06T05:37:58.434Z,92.32
2022-10-06T05:38:58.439Z,92.32
2022-10-06T05:39:58.438Z,92.21
2022-10-06T05:40:58.419Z,92.11
2022-10-06T05:41:58.407Z,92.11
2022-10-06T05:42:58.391Z,92.01
2022-10-06T05:43:58.396Z,91.39
2022-10-06T05:44:58.401Z,91.39
2022-10-06T05:45:58.413Z,91.19
2022-10-06T05:46:58.471Z,91.19
2022-10-06T05:47:58.330Z,91.50
2022-10-06T05:48:58.340Z,91.60
2022-10-06T05:49:58.328Z,91.50
2022-10-06T05:50:58.309Z,91.70
2022-10-06T05:51:58.298Z,91.91
2022-10-06T05:52:58.300Z,92.11
2022-10-06T05:53:58.333Z,92.01
2022-10-06T05:54:58.266Z,91.91
2022-10-06T05:55:58.248Z,92.05
2022-10-06T05:56:58.246Z,92.36
2022-10-06T05:57:58.273Z,92.46
2022-10-06T05:58:58.295Z,92.56
2022-10-06T05:59:58.209Z,92.56
2022-10-06T06:00:58.220Z,92.56
2022-10-06T06:01:58.225Z,92.66
2022-10-06T06:02:58.249Z,92.66
2022-10-06T06:03:58.167Z,92.66
2022-10-06T06:04:58.159Z,92.56
2022-10-06T06:05:58.144Z,92.56
2022-10-06T06:06:58.172Z,92.36
2022-10-06T06:07:58.128Z,92.46
2022-10-06T06:08:58.125Z,92.46
2022-10-06T06:09:58.122Z,92.25
2022-10-06T06:10:58.136Z,92.15
2022-10-06T06:11:58.079Z,91.91
2022-10-06T06:12:58.097Z,92.01
2022-10-06T06:13:58.070Z,92.01
2022-10-06T06:14:58.109Z,91.80
2022-10-06T06:15:58.095Z,92.01
2022-10-06T06:16:58.145Z,91.91
2022-10-06T06:17:58.035Z,91.91
2022-10-06T06:18:57.997Z,91.80
2022-10-06T06:19:57.990Z,91.70
2022-10-06T06:20:58.004Z,91.91
2022-10-06T06:21:57.977Z,91.80
2022-10-06T06:22:58.003Z,91.80
2022-10-06T06:23:57.961Z,91.70
2022-10-06T06:24:57.946Z,91.80
2022-10-06T06:26:02.062Z,92.01
2022-10-06T06:26:57.947Z,92.21
2022-10-06T06:27:58.037Z,92.25
2022-10-06T06:28:57.898Z,92.46
2022-10-06T06:29:57.877Z,92.11
2022-10-06T06:30:57.934Z,92.11
2022-10-06T06:31:57.858Z,92.11
2022-10-06T06:32:57.998Z,91.80
2022-10-06T06:33:57.925Z,91.80
2022-10-06T06:34:57.879Z,91.70
2022-10-06T06:35:57.838Z,91.50
2022-10-06T06:37:01.197Z,91.46
2022-10-06T06:37:57.800Z,91.56
2022-10-06T06:38:57.876Z,91.60
2022-10-06T06:39:57.880Z,91.46
2022-10-06T06:40:57.777Z,91.56
2022-10-06T06:41:57.768Z,91.35
2022-10-06T06:42:57.764Z,91.46
2022-10-06T06:43:57.738Z,91.35
2022-10-06T06:44:57.764Z,91.46
2022-10-06T06:45:57.760Z,91.66
2022-10-06T06:46:57.715Z,91.46
2022-10-06T06:47:57.696Z,91.25
2022-10-06T06:48:57.698Z,91.15
2022-10-06T06:49:57.692Z,91.15
2022-10-06T06:50:57.670Z,90.94
2022-10-06T06:51:57.644Z,91.00
2022-10-06T06:52:57.685Z,90.49
2022-10-06T06:53:57.623Z,90.39
2022-10-06T06:54:57.653Z,90.49
2022-10-06T06:55:57.605Z,90.70
2022-10-06T06:56:57.642Z,90.19
2022-10-06T06:57:57.598Z,90.19
2022-10-06T06:58:57.580Z,89.67
2022-10-06T06:59:57.558Z,89.53
2022-10-06T07:00:57.604Z,89.43
2022-10-06T07:01:57.664Z,89.23
2022-10-06T07:02:57.557Z,89.43
2022-10-06T07:03:58.828Z,89.02
2022-10-06T07:04:57.517Z,88.78
2022-10-06T07:05:57.504Z,88.47
2022-10-06T07:06:57.521Z,88.78
2022-10-06T07:07:57.469Z,88.06
2022-10-06T07:08:57.475Z,87.85
2022-10-06T07:09:57.463Z,87.71
2022-10-06T07:10:57.458Z,88.02
2022-10-06T07:11:57.478Z,87.92
2022-10-06T07:12:57.455Z,87.20
2022-10-06T07:13:57.422Z,87.20
2022-10-06T07:14:57.427Z,86.90
2022-10-06T07:15:57.435Z,86.90
2022-10-06T07:16:57.544Z,86.49
2022-10-06T07:17:57.376Z,86.80
2022-10-06T07:18:57.446Z,86.55
2022-10-06T07:19:57.366Z,86.86
2022-10-06T07:20:57.334Z,86.24
2022-10-06T07:21:57.329Z,85.84
2022-10-06T07:22:57.356Z,86.35
2022-10-06T07:23:57.318Z,86.04
2022-10-06T07:24:57.315Z,85.74
2022-10-06T07:25:57.322Z,85.63
2022-10-06T07:26:57.311Z,86.15
2022-10-06T07:27:57.306Z,85.94
2022-10-06T07:28:57.270Z,85.53
2022-10-06T07:29:57.475Z,85.39
2022-10-06T07:30:57.305Z,85.28
2022-10-06T07:31:57.223Z,85.39
2022-10-06T07:32:57.241Z,84.88
2022-10-06T07:33:57.231Z,85.69
2022-10-06T07:34:57.360Z,85.19
2022-10-06T07:35:57.206Z,84.17
2022-10-06T07:36:57.178Z,84.78
2022-10-06T07:37:57.154Z,84.17
2022-10-06T07:38:57.176Z,84.94
2022-10-06T07:39:57.156Z,84.12
2022-10-06T07:41:57.159Z,83.72
2022-10-06T07:42:57.131Z,83.92
2022-10-06T07:43:57.098Z,83.82
2022-10-06T07:44:57.087Z,83.31
2022-10-06T07:45:57.117Z,83.42
2022-10-06T07:46:57.079Z,83.92
2022-10-06T07:47:57.051Z,83.31
2022-10-06T07:48:57.078Z,83.72
2022-10-06T07:49:57.044Z,82.76
2022-10-06T07:50:57.046Z,82.76
2022-10-06T07:51:57.008Z,82.46
2022-10-06T07:52:57.063Z,82.87
2022-10-06T07:53:56.977Z,82.56
2022-10-06T07:54:57.098Z,82.26
2022-10-06T07:55:56.976Z,82.56
2022-10-06T07:56:56.959Z,82.26
2022-10-06T07:57:56.950Z,82.21
2022-10-06T07:58:56.933Z,81.51
2022-10-06T08:00:01.948Z,81.20
2022-10-06T08:00:57.003Z,80.90
2022-10-06T08:01:57.027Z,81.60
2022-10-06T08:02:57.103Z,80.90
2022-10-06T08:03:56.892Z,81.10
2022-10-06T08:04:57.021Z,80.90
2022-10-06T08:05:56.855Z,81.40
2022-10-06T08:06:56.860Z,81.37
2022-10-06T08:07:56.846Z,81.37
2022-10-06T08:08:56.893Z,80.85
2022-10-06T08:09:56.824Z,80.76
2022-10-06T08:10:56.850Z,80.55
2022-10-06T08:11:56.813Z,81.46
2022-10-06T08:12:56.777Z,80.24
2022-10-06T08:13:56.775Z,80.85
2022-10-06T08:14:57.121Z,80.41
2022-10-06T08:15:56.820Z,79.70
2022-10-06T08:16:56.761Z,80.11
2022-10-06T08:17:56.725Z,80.11
2022-10-06T08:18:56.729Z,79.16
2022-10-06T08:19:56.697Z,79.05
2022-10-06T08:20:56.737Z,79.36
2022-10-06T08:21:59.869Z,79.36
2022-10-06T08:22:56.685Z,78.55
2022-10-06T08:23:56.668Z,78.04
2022-10-06T08:25:05.826Z,77.63
2022-10-06T08:25:56.639Z,78.17
2022-10-06T08:26:56.646Z,79.05
2022-10-06T08:27:56.732Z,77.56
2022-10-06T08:28:56.612Z,78.55
2022-10-06T08:29:56.603Z,77.73
2022-10-06T08:30:56.609Z,77.94
2022-10-06T08:31:56.618Z,78.95
2022-10-06T08:32:56.575Z,78.64
2022-10-06T08:33:56.571Z,77.80
2022-10-06T08:34:57.319Z,77.90
2022-10-06T08:35:56.550Z,77.19
2022-10-06T08:37:18.607Z,77.09
2022-10-06T08:37:56.553Z,76.88
2022-10-06T08:38:56.491Z,77.09
2022-10-06T08:39:56.489Z,77.70
2022-10-06T08:40:56.825Z,77.09
2022-10-06T08:41:56.486Z,77.19
2022-10-06T08:42:56.504Z,76.98
2022-10-06T08:43:56.445Z,77.39
2022-10-06T08:44:56.887Z,77.15
2022-10-06T08:45:56.417Z,76.75
2022-10-06T08:46:56.409Z,76.34
2022-10-06T08:47:56.399Z,76.24
2022-10-06T08:48:56.416Z,76.54
2022-10-06T08:49:56.825Z,76.14
2022-10-06T08:50:56.374Z,76.54
2022-10-06T08:51:56.360Z,75.43
2022-10-06T08:52:56.339Z,75.79
2022-10-06T08:53:56.363Z,75.32
2022-10-06T08:54:56.316Z,74.92
2022-10-06T08:55:56.319Z,75.43
2022-10-06T08:56:56.307Z,75.19
2022-10-06T08:57:56.316Z,73.77
2022-10-06T08:58:56.342Z,74.62
2022-10-06T08:59:56.580Z,75.32
2022-10-06T09:00:56.299Z,75.29
2022-10-06T09:01:56.340Z,75.09
2022-10-06T09:02:56.276Z,73.66
2022-10-06T09:03:56.281Z,73.97
2022-10-06T09:04:56.251Z,74.34
2022-10-06T09:05:56.215Z,74.91
2022-10-06T09:06:56.203Z,74.27
2022-10-06T09:07:56.211Z,73.86
2022-10-06T09:08:56.205Z,73.53
2022-10-06T09:09:56.492Z,71.50
2022-10-06T09:10:56.153Z,71.70
2022-10-06T09:11:56.153Z,71.91
2022-10-06T09:12:56.142Z,71.80
2022-10-06T09:13:56.157Z,69.61
2022-10-06T09:14:56.141Z,70.62
2022-10-06T09:15:56.142Z,71.03
2022-10-06T09:16:56.088Z,70.62
2022-10-06T09:17:56.224Z,70.25
2022-10-06T09:19:08.230Z,71.47
2022-10-06T09:19:56.376Z,71.06
2022-10-06T09:20:56.094Z,71.06
2022-10-06T09:21:56.052Z,71.16
2022-10-06T09:22:56.092Z,70.62
2022-10-06T09:23:56.028Z,70.32
2022-10-06T09:24:56.018Z,69.27
2022-10-06T09:25:56.018Z,69.88
2022-10-06T09:26:56.001Z,69.17
2022-10-06T09:27:56.107Z,68.66
2022-10-06T09:28:55.957Z,67.96
2022-10-06T09:29:56.282Z,68.66
2022-10-06T09:30:56.009Z,69.37
2022-10-06T09:31:55.953Z,68.16
2022-10-06T09:32:55.912Z,69.27
2022-10-06T09:33:55.906Z,68.16
2022-10-06T09:34:55.930Z,67.65
2022-10-06T09:35:55.900Z,67.55
2022-10-06T09:37:00.902Z,67.85
2022-10-06T09:37:55.904Z,68.63
2022-10-06T09:38:55.863Z,66.27
2022-10-06T09:39:56.221Z,66.07
2022-10-06T09:40:56.126Z,66.98
2022-10-06T09:41:55.826Z,66.17
2022-10-06T09:42:55.808Z,65.64
2022-10-06T09:43:55.804Z,65.73
2022-10-06T09:44:55.783Z,66.24
2022-10-06T09:45:55.851Z,65.56
2022-10-06T09:46:55.773Z,66.14
2022-10-06T09:47:55.760Z,64.12
2022-10-06T09:48:55.760Z,64.70
2022-10-06T09:49:55.924Z,63.71
2022-10-06T09:50:56.073Z,65.47
2022-10-06T09:51:55.724Z,64.35
2022-10-06T09:52:55.700Z,63.61
2022-10-06T09:53:55.731Z,62.98
2022-10-06T09:54:55.711Z,62.92
2022-10-06T09:55:55.705Z,62.21
2022-10-06T09:56:55.674Z,61.51
2022-10-06T09:57:55.657Z,61.80
2022-10-06T09:58:55.748Z,62.01
2022-10-06T09:59:55.895Z,62.74
2022-10-06T10:00:55.671Z,63.55
2022-10-06T10:01:55.701Z,62.41
2022-10-06T10:02:55.645Z,62.98
2022-10-06T10:04:15.940Z,61.33
2022-10-06T10:04:55.949Z,61.43
2022-10-06T10:05:55.685Z,59.63
2022-10-06T10:06:55.584Z,59.20
2022-10-06T10:07:55.565Z,60.82
2022-10-06T10:08:55.651Z,61.56
2022-10-06T10:09:55.778Z,60.75
2022-10-06T10:10:55.557Z,60.52
2022-10-06T10:11:55.523Z,58.09
2022-10-06T10:12:55.509Z,56.60
2022-10-06T10:13:55.482Z,54.80
2022-10-06T10:14:55.521Z,54.25
2022-10-06T10:15:55.497Z,52.62
2022-10-06T10:16:55.435Z,50.96
2022-10-06T10:17:55.453Z,54.88
2022-10-06T10:18:55.460Z,55.56
2022-10-06T10:19:55.871Z,56.22
2022-10-06T10:20:55.404Z,56.24
2022-10-06T10:21:55.394Z,57.03
2022-10-06T10:22:55.408Z,54.80
2022-10-06T10:23:55.380Z,51.72
2022-10-06T10:24:55.354Z,52.59
2022-10-06T10:25:55.361Z,54.66
2022-10-06T10:26:55.342Z,56.81
2022-10-06T10:27:55.621Z,59.18
2022-10-06T10:28:55.319Z,59.81
2022-10-06T10:29:55.665Z,61.19
2022-10-06T10:30:55.349Z,61.87
2022-10-06T10:31:55.457Z,59.30
2022-10-06T10:32:55.334Z,55.76
2022-10-06T10:34:12.126Z,52.80
2022-10-06T10:34:55.631Z,53.34
2022-10-06T10:35:55.263Z,51.19
2022-10-06T10:36:56.222Z,51.04
2022-10-06T10:37:55.241Z,49.69
2022-10-06T10:38:55.234Z,47.94
2022-10-06T10:39:55.205Z,46.27
2022-10-06T10:40:55.187Z,46.62
2022-10-06T10:41:55.193Z,50.38
2022-10-06T10:42:55.211Z,52.09
2022-10-06T10:43:55.179Z,49.81
2022-10-06T10:44:55.528Z,50.62
2022-10-06T10:45:55.144Z,48.11
2022-10-06T10:46:55.200Z,45.79
2022-10-06T10:47:55.119Z,47.56
2022-10-06T10:48:55.106Z,48.66
2022-10-06T10:49:55.115Z,50.03
2022-10-06T10:50:55.097Z,49.33
2022-10-06T10:51:55.109Z,47.96
2022-10-06T10:52:55.183Z,45.84
2022-10-06T10:53:55.060Z,45.01
2022-10-06T10:54:55.282Z,44.92
2022-10-06T10:55:55.137Z,44.20
2022-10-06T10:56:55.150Z,43.70
2022-10-06T10:57:55.014Z,43.40
2022-10-06T10:58:55.001Z,43.79
2022-10-06T10:59:54.995Z,43.07
2022-10-06T11:00:55.052Z,43.48
2022-10-06T11:01:55.023Z,41.93
2022-10-06T11:02:55.016Z,41.74
2022-10-06T11:03:54.947Z,43.27
2022-10-06T11:04:56.105Z,43.59
2022-10-06T11:05:54.959Z,43.67
2022-10-06T11:06:54.925Z,42.38
2022-10-06T11:07:54.904Z,42.25
2022-10-06T11:08:54.963Z,42.43
2022-10-06T11:09:54.893Z,42.05
2022-10-06T11:10:54.902Z,42.73
2022-10-06T11:11:54.860Z,43.33
2022-10-06T11:12:54.860Z,44.25
2022-10-06T11:13:54.852Z,44.20
2022-10-06T11:14:54.871Z,46.28
2022-10-06T11:15:54.871Z,47.63
2022-10-06T11:16:54.874Z,47.55
2022-10-06T11:17:54.838Z,48.72
2022-10-06T11:18:54.796Z,50.43
2022-10-06T11:19:54.849Z,51.24
2022-10-06T11:20:55.751Z,50.43
2022-10-06T11:21:54.775Z,50.93
2022-10-06T11:22:54.746Z,50.23
2022-10-06T11:23:55.078Z,51.11
2022-10-06T11:24:54.768Z,50.38
2022-10-06T11:25:54.777Z,49.96
2022-10-06T11:26:54.789Z,49.93
2022-10-06T11:27:54.737Z,49.93
2022-10-06T11:28:54.703Z,50.31
2022-10-06T11:29:54.702Z,52.55
2022-10-06T11:30:54.688Z,52.55
2022-10-06T11:31:54.795Z,51.86
2022-10-06T11:32:54.650Z,52.19
2022-10-06T11:33:54.655Z,52.92
2022-10-06T11:34:55.619Z,53.22
2022-10-06T11:35:54.856Z,52.80
2022-10-06T11:36:54.647Z,52.26
2022-10-06T11:37:54.614Z,52.34
2022-10-06T11:38:54.614Z,51.54
2022-10-06T11:39:54.586Z,50.15
2022-10-06T11:40:54.569Z,52.89
2022-10-06T11:41:59.638Z,52.34
2022-10-06T11:42:54.541Z,52.37
2022-10-06T11:43:56.037Z,52.67
2022-10-06T11:44:58.238Z,51.73
2022-10-06T11:45:54.592Z,53.09
2022-10-06T11:46:54.663Z,53.07
2022-10-06T11:47:54.526Z,52.94
2022-10-06T11:48:54.651Z,52.47
2022-10-06T11:49:54.498Z,53.47
2022-10-06T11:50:54.500Z,53.17
2022-10-06T11:51:58.360Z,54.15
2022-10-06T11:52:54.578Z,54.10
2022-10-06T11:53:54.453Z,52.06
2022-10-06T11:54:54.425Z,50.53
2022-10-06T11:55:54.415Z,51.74
2022-10-06T11:56:54.404Z,52.34
2022-10-06T11:57:54.600Z,49.93
2022-10-06T11:58:54.549Z,50.93
2022-10-06T11:59:54.381Z,51.71
2022-10-06T12:00:54.394Z,52.22
2022-10-06T12:01:55.434Z,53.02
2022-10-06T12:02:54.503Z,53.30
2022-10-06T12:03:54.340Z,52.87
2022-10-06T12:04:54.393Z,51.89
2022-10-06T12:05:56.770Z,51.59
2022-10-06T12:06:54.329Z,51.79
2022-10-06T12:07:54.289Z,51.97
2022-10-06T12:08:54.379Z,50.93
2022-10-06T12:09:54.276Z,50.38
2022-10-06T12:10:54.339Z,50.54
2022-10-06T12:11:54.333Z,49.04
2022-10-06T12:13:21.190Z,48.81
2022-10-06T12:15:26.856Z,48.51
2022-10-06T12:17:19.293Z,48.55
2022-10-06T12:18:14.257Z,48.93
2022-10-06T12:19:14.234Z,49.13
2022-10-06T12:20:14.238Z,51.31
2022-10-06T12:21:14.209Z,50.43
2022-10-06T12:22:14.534Z,51.39
2022-10-06T12:23:14.176Z,48.69
2022-10-06T12:25:14.157Z,46.72
2022-10-06T12:26:14.169Z,44.04
2022-10-06T12:27:14.663Z,45.77
2022-10-06T12:28:14.830Z,42.10
2022-10-06T12:29:14.132Z,40.95
2022-10-06T12:30:14.121Z,39.11
2022-10-06T12:31:18.075Z,38.53
2022-10-06T12:32:14.192Z,39.72
2022-10-06T12:33:14.078Z,39.31
2022-10-06T12:34:14.145Z,39.42
2022-10-06T12:35:14.453Z,41.83
2022-10-06T12:36:14.049Z,42.61
2022-10-06T12:37:15.122Z,40.88
2022-10-06T12:38:14.063Z,40.64
2022-10-06T12:39:14.085Z,39.31
2022-10-06T12:40:14.114Z,38.29
2022-10-06T12:41:13.988Z,37.46
2022-10-06T12:42:14.049Z,37.58
2022-10-06T12:43:14.076Z,37.16
2022-10-06T12:44:16.657Z,37.64
2022-10-06T12:45:13.959Z,36.60
2022-10-06T12:46:14.037Z,36.80
2022-10-06T12:47:13.943Z,37.40
2022-10-06T12:48:14.066Z,35.89
2022-10-06T12:49:15.329Z,37.34
2022-10-06T12:50:13.919Z,36.55
2022-10-06T12:51:13.924Z,36.76
2022-10-06T12:52:13.940Z,36.85
2022-10-06T12:53:13.954Z,38.80
2022-10-06T12:54:13.873Z,39.92
2022-10-06T12:55:13.874Z,39.26
2022-10-06T12:56:13.876Z,38.25